createdAt,value
2023-01-11T00:01:51.552Z,40.30
2023-01-11T00:04:28.332Z,41.00
2023-01-11T00:06:59.430Z,48.40
2023-01-11T00:09:30.521Z,40.10
2023-01-11T00:12:01.219Z,45.10
2023-01-11T00:14:32.012Z,49.80
2023-01-11T00:17:02.965Z,44.50
2023-01-11T00:19:34.057Z,45.40
2023-01-11T00:22:04.678Z,52.10
2023-01-11T00:24:35.440Z,52.80
2023-01-11T00:27:06.221Z,51.90
2023-01-11T00:29:36.870Z,46.30
2023-01-11T00:32:08.039Z,52.10
2023-01-11T00:34:38.823Z,52.80
2023-01-11T00:37:10.810Z,48.00
2023-01-11T00:39:41.465Z,56.40
2023-01-11T00:42:30.961Z,51.70
2023-01-11T00:45:19.240Z,57.30
2023-01-11T00:48:00.454Z,44.20
2023-01-11T00:50:33.201Z,51.90
2023-01-11T00:53:04.726Z,60.80
2023-01-11T00:55:36.604Z,51.10
2023-01-11T00:58:07.236Z,50.80
2023-01-11T01:00:40.661Z,50.70
2023-01-11T01:03:11.384Z,47.70
2023-01-11T01:05:42.402Z,54.70
2023-01-11T01:08:13.094Z,50.50
2023-01-11T01:10:43.784Z,55.00
2023-01-11T01:13:32.163Z,51.30
2023-01-11T01:16:02.840Z,51.20
2023-01-11T01:18:33.495Z,48.40
2023-01-11T01:21:04.277Z,44.50
2023-01-11T01:23:34.925Z,58.00
2023-01-11T01:26:07.202Z,48.20
2023-01-11T01:28:37.861Z,44.40
2023-01-11T01:31:08.592Z,54.20
2023-01-11T01:33:39.313Z,52.70
2023-01-11T01:36:11.095Z,49.10
2023-01-11T01:38:41.754Z,50.00
2023-01-11T01:41:13.580Z,46.30
2023-01-11T01:43:51.108Z,51.10
2023-01-11T01:46:23.876Z,50.60
2023-01-11T01:48:58.470Z,53.10
2023-01-11T01:51:33.237Z,47.20
2023-01-11T01:54:09.363Z,46.50
2023-01-11T01:56:46.287Z,46.30
2023-01-11T01:59:20.648Z,46.00
2023-01-11T02:01:52.806Z,55.90
2023-01-11T02:04:28.527Z,52.60
2023-01-11T02:07:02.590Z,48.20
2023-01-11T02:12:09.069Z,49.40
2023-01-11T02:14:41.880Z,48.80
2023-01-11T02:17:13.102Z,48.50
2023-01-11T02:19:56.186Z,49.00
2023-01-11T02:23:00.949Z,50.60
2023-01-11T02:26:14.299Z,49.60
2023-01-11T02:28:53.396Z,50.60
2023-01-11T02:31:32.776Z,50.30
2023-01-11T02:34:19.634Z,50.40
2023-01-11T02:37:04.753Z,46.50
2023-01-11T02:39:44.497Z,45.40
2023-01-11T02:42:43.916Z,51.40
2023-01-11T02:45:25.141Z,36.10
2023-01-11T02:48:03.943Z,36.50
2023-01-11T02:50:40.956Z,46.10
2023-01-11T02:53:18.246Z,37.20
2023-01-11T02:55:52.963Z,35.80
2023-01-11T02:58:28.035Z,43.30
2023-01-11T03:01:00.188Z,46.40
2023-01-11T03:03:30.928Z,44.80
2023-01-11T03:06:06.730Z,43.90
2023-01-11T03:09:07.281Z,46.30
2023-01-11T03:12:13.839Z,41.30
2023-01-11T03:14:59.873Z,31.00
2023-01-11T03:17:45.733Z,40.50
2023-01-11T03:20:23.267Z,36.10
2023-01-11T03:23:08.408Z,38.30
2023-01-11T03:25:46.568Z,32.70
2023-01-11T03:28:23.825Z,32.40
2023-01-11T03:31:02.771Z,31.90
2023-01-11T03:33:40.445Z,33.20
2023-01-11T03:36:21.238Z,32.90
2023-01-11T03:38:57.651Z,36.10
2023-01-11T03:41:31.112Z,42.90
2023-01-11T03:44:04.369Z,37.90
2023-01-11T03:46:38.933Z,27.60
2023-01-11T03:49:14.483Z,35.10
2023-01-11T03:51:47.291Z,34.40
2023-01-11T03:54:22.138Z,31.60
2023-01-11T03:57:00.156Z,30.80
2023-01-11T03:59:31.006Z,31.30
2023-01-11T04:02:02.142Z,30.30
2023-01-11T04:04:32.881Z,58.80
2023-01-11T04:07:03.893Z,58.30
2023-01-11T04:09:35.925Z,35.40
2023-01-11T04:12:09.676Z,37.10
2023-01-11T04:14:40.487Z,49.80
2023-01-11T04:17:11.266Z,38.00
2023-01-11T04:19:41.968Z,44.40
2023-01-11T04:22:12.824Z,35.50
2023-01-11T04:24:43.527Z,26.00
2023-01-11T04:27:14.215Z,28.90
2023-01-11T04:29:44.816Z,41.20
2023-01-11T04:32:16.012Z,38.80
2023-01-11T04:34:46.827Z,33.80
2023-01-11T04:37:17.564Z,42.30
2023-01-11T04:39:48.252Z,39.50
2023-01-11T04:42:22.249Z,46.90
2023-01-11T04:44:53.922Z,39.80
2023-01-11T04:47:26.110Z,34.60
2023-01-11T04:49:56.751Z,38.20
2023-01-11T04:52:27.548Z,36.00
2023-01-11T04:54:58.255Z,38.10
2023-01-11T04:57:28.973Z,39.70
2023-01-11T04:59:59.629Z,35.30
2023-01-11T05:02:30.278Z,39.50
2023-01-11T05:05:01.260Z,31.20
2023-01-11T05:07:32.013Z,32.00
2023-01-11T05:10:02.697Z,34.10
2023-01-11T05:12:33.470Z,31.40
2023-01-11T05:15:04.251Z,31.10
2023-01-11T05:17:34.951Z,43.60
2023-01-11T05:20:06.347Z,34.30
2023-01-11T05:22:37.325Z,30.30
2023-01-11T05:25:09.715Z,31.30
2023-01-11T05:27:40.581Z,26.70
2023-01-11T05:30:13.619Z,31.80
2023-01-11T05:32:44.282Z,23.40
2023-01-11T05:35:15.093Z,35.30
2023-01-11T05:37:45.842Z,32.50
2023-01-11T05:40:16.978Z,34.40
2023-01-11T05:42:49.590Z,28.20
2023-01-11T05:45:33.671Z,36.70
2023-01-11T05:48:04.553Z,29.00
2023-01-11T05:50:35.273Z,32.00
2023-01-11T05:53:07.128Z,32.30
2023-01-11T05:55:37.884Z,32.50
2023-01-11T05:58:09.254Z,30.00
2023-01-11T06:00:40.578Z,29.70
2023-01-11T06:03:11.324Z,31.10
2023-01-11T06:05:42.043Z,29.50
2023-01-11T06:08:13.454Z,27.80
2023-01-11T06:10:46.303Z,30.30
2023-01-11T06:13:29.435Z,28.70
2023-01-11T06:16:03.640Z,24.10
2023-01-11T06:18:35.997Z,29.40
2023-01-11T06:21:07.723Z,30.00
2023-01-11T06:23:41.122Z,29.70
2023-01-11T06:26:13.410Z,33.90
2023-01-11T06:28:44.678Z,28.90
2023-01-11T06:31:17.914Z,34.50
2023-01-11T06:33:49.283Z,46.30
2023-01-11T06:36:20.055Z,42.80
2023-01-11T06:38:50.791Z,39.30
2023-01-11T06:41:21.512Z,35.30
2023-01-11T06:43:53.248Z,35.00
2023-01-11T06:46:24.160Z,35.50
2023-01-11T06:48:54.875Z,27.50
2023-01-11T06:51:25.627Z,30.90
2023-01-11T06:53:56.809Z,30.20
2023-01-11T06:56:27.536Z,33.70
2023-01-11T06:58:58.254Z,41.20
2023-01-11T07:01:30.693Z,39.30
2023-01-11T07:04:01.797Z,29.50
2023-01-11T07:06:37.929Z,38.50
2023-01-11T07:09:08.609Z,29.70
2023-01-11T07:11:39.918Z,34.40
2023-01-11T07:14:12.302Z,28.30
2023-01-11T07:16:43.136Z,33.80
2023-01-11T07:19:14.553Z,32.50
2023-01-11T07:21:46.441Z,30.40
2023-01-11T07:24:17.183Z,30.00
2023-01-11T07:26:47.850Z,41.50
2023-01-11T07:29:18.551Z,34.70
2023-01-11T07:31:50.201Z,29.80
2023-01-11T07:34:20.928Z,34.60
2023-01-11T07:36:51.587Z,26.50
2023-01-11T07:39:26.834Z,39.40
2023-01-11T07:42:20.199Z,41.80
2023-01-11T07:44:51.394Z,43.10
2023-01-11T07:47:22.120Z,38.10
2023-01-11T07:49:52.839Z,37.00
2023-01-11T07:52:23.542Z,36.50
2023-01-11T07:54:54.401Z,40.60
2023-01-11T07:57:25.162Z,28.60
2023-01-11T07:59:55.871Z,34.30
2023-01-11T08:02:26.751Z,28.60
2023-01-11T08:04:58.306Z,27.70
2023-01-11T08:07:29.147Z,32.10
2023-01-11T08:09:59.875Z,29.80
2023-01-11T08:12:44.397Z,33.60
2023-01-11T08:15:15.338Z,32.60
2023-01-11T08:17:46.078Z,35.40
2023-01-11T08:20:17.505Z,33.80
2023-01-11T08:22:48.662Z,31.50
2023-01-11T08:25:19.556Z,31.00
2023-01-11T08:27:50.432Z,36.70
2023-01-11T08:30:21.380Z,30.00
2023-01-11T08:32:52.619Z,34.10
2023-01-11T08:35:23.470Z,24.60
2023-01-11T08:37:54.213Z,28.20
2023-01-11T08:40:25.605Z,30.70
2023-01-11T08:42:58.742Z,30.60
2023-01-11T08:45:30.032Z,29.20
2023-01-11T08:48:01.745Z,36.10
2023-01-11T08:50:32.412Z,36.90
2023-01-11T08:53:03.283Z,29.40
2023-01-11T08:55:34.109Z,27.30
2023-01-11T08:58:04.775Z,33.50
2023-01-11T09:00:35.494Z,27.70
2023-01-11T09:03:06.489Z,29.00
2023-01-11T09:05:37.513Z,31.20
2023-01-11T09:08:09.940Z,29.80
2023-01-11T09:10:41.046Z,29.10
2023-01-11T09:13:11.763Z,31.20
2023-01-11T09:15:42.536Z,26.10
2023-01-11T09:18:13.285Z,27.50
2023-01-11T09:20:43.975Z,29.10
2023-01-11T09:23:14.813Z,24.00
2023-01-11T09:25:45.478Z,27.30
2023-01-11T09:28:16.184Z,24.70
2023-01-11T09:30:46.831Z,23.90
2023-01-11T09:33:17.595Z,25.70
2023-01-11T09:35:49.396Z,26.70
2023-01-11T09:38:20.521Z,30.90
2023-01-11T09:41:00.571Z,25.00
2023-01-11T09:43:37.462Z,20.50
2023-01-11T09:46:10.789Z,21.10
2023-01-11T09:48:45.885Z,25.10
2023-01-11T09:51:19.268Z,28.40
2023-01-11T09:53:52.427Z,27.50
2023-01-11T09:56:29.657Z,31.20
2023-01-11T09:59:11.285Z,25.60
2023-01-11T10:01:47.292Z,29.80
2023-01-11T10:04:41.690Z,28.70
2023-01-11T10:07:43.067Z,28.20
2023-01-11T10:18:34.256Z,14.90
2023-01-11T10:19:37.623Z,30.00
2023-01-11T10:22:18.053Z,21.70
2023-01-11T10:24:56.460Z,23.70
2023-01-11T10:27:34.335Z,22.50
2023-01-11T10:30:33.376Z,27.80
2023-01-11T10:33:18.781Z,23.70
2023-01-11T10:36:10.639Z,26.20
2023-01-11T10:39:03.257Z,25.00
2023-01-11T10:41:43.296Z,21.80
2023-01-11T10:44:23.563Z,25.50
2023-01-11T10:46:57.962Z,26.90
2023-01-11T10:49:47.799Z,23.50
2023-01-11T10:52:28.148Z,26.80
2023-01-11T10:55:00.645Z,23.40
2023-01-11T10:57:59.675Z,23.80
2023-01-11T11:00:39.830Z,28.80
2023-01-11T11:03:31.303Z,32.00
2023-01-11T11:06:09.377Z,29.40
2023-01-11T11:08:48.433Z,26.40
2023-01-11T11:11:24.141Z,34.70
2023-01-11T11:14:02.007Z,29.10
2023-01-11T11:16:50.994Z,29.60
2023-01-11T11:19:26.562Z,29.20
2023-01-11T11:21:57.227Z,39.50
2023-01-11T11:24:33.429Z,36.10
2023-01-11T11:27:09.344Z,23.80
2023-01-11T11:29:52.069Z,25.60
2023-01-11T11:32:27.904Z,28.60
2023-01-11T11:34:58.891Z,29.00
2023-01-11T11:37:33.164Z,32.30
2023-01-11T11:40:05.762Z,31.70
2023-01-11T11:42:36.555Z,30.20
2023-01-11T11:45:20.019Z,31.40
2023-01-11T11:48:11.890Z,26.80
2023-01-11T11:50:45.179Z,34.60
2023-01-11T11:53:27.622Z,23.90
2023-01-11T11:55:58.934Z,28.20
2023-01-11T11:58:30.056Z,23.50
2023-01-11T12:01:01.148Z,21.20
2023-01-11T12:03:33.791Z,18.50
2023-01-11T12:06:07.627Z,24.20
2023-01-11T12:08:39.185Z,22.80
2023-01-11T12:11:19.809Z,18.60
2023-01-11T12:14:02.235Z,21.30
2023-01-11T12:16:40.354Z,20.50
2023-01-11T12:19:34.727Z,22.20
2023-01-11T12:22:17.187Z,26.40
2023-01-11T12:24:48.970Z,19.20
2023-01-11T12:27:41.874Z,19.90
2023-01-11T12:30:23.088Z,26.80
2023-01-11T12:33:27.853Z,25.60
2023-01-11T12:36:05.909Z,22.40
2023-01-11T12:38:54.959Z,20.00
2023-01-11T12:41:44.914Z,19.10
2023-01-11T12:44:26.356Z,20.70
2023-01-11T12:47:18.066Z,27.20
2023-01-11T12:50:00.990Z,19.30
2023-01-11T12:52:54.143Z,18.90
2023-01-11T12:55:43.334Z,20.20
2023-01-11T12:58:19.806Z,19.60
2023-01-11T13:01:23.565Z,14.10
2023-01-11T13:04:34.415Z,15.70
2023-01-11T13:07:15.882Z,16.50
2023-01-11T13:10:04.535Z,24.70
2023-01-11T13:12:42.515Z,28.50
2023-01-11T13:15:30.141Z,26.60
2023-01-11T13:18:07.762Z,22.10
2023-01-11T13:21:00.721Z,17.60
2023-01-11T13:23:42.079Z,22.90
2023-01-11T13:26:26.625Z,22.10
2023-01-11T13:29:01.873Z,19.40
2023-01-11T13:34:08.732Z,20.20
2023-01-11T13:36:45.663Z,25.00
2023-01-11T13:39:23.174Z,25.80
2023-01-11T13:41:57.902Z,27.60
2023-01-11T13:44:32.493Z,17.10
2023-01-11T13:47:10.573Z,26.90
2023-01-11T13:49:53.474Z,18.90
2023-01-11T13:52:37.024Z,27.40
2023-01-11T13:55:24.851Z,25.70
2023-01-11T13:58:02.693Z,26.00
2023-01-11T14:00:39.093Z,26.00
2023-01-11T14:03:21.354Z,24.10
2023-01-11T14:06:08.256Z,24.20
2023-01-11T14:09:21.265Z,24.80
2023-01-11T14:12:02.728Z,26.50
2023-01-11T14:14:54.600Z,23.80
2023-01-11T14:17:38.430Z,25.40
2023-01-11T14:20:21.840Z,24.00
2023-01-11T14:23:03.415Z,30.70
2023-01-11T14:25:39.498Z,25.50
2023-01-11T14:28:20.031Z,29.50
2023-01-11T14:31:07.067Z,29.60
2023-01-11T14:34:29.717Z,25.50
2023-01-11T14:37:25.055Z,24.30
2023-01-11T14:40:27.090Z,24.80
2023-01-11T14:43:19.863Z,23.70
2023-01-11T14:46:11.811Z,25.90
2023-01-11T14:48:55.006Z,23.10
2023-01-11T14:51:34.887Z,24.70
2023-01-11T14:54:11.937Z,24.70
2023-01-11T14:56:55.510Z,23.50
2023-01-11T14:59:39.242Z,18.50
2023-01-11T15:02:30.141Z,22.00
2023-01-11T15:05:11.674Z,25.10
2023-01-11T15:07:44.427Z,26.50
2023-01-11T15:16:28.328Z,23.50
2023-01-11T15:19:01.838Z,23.90
2023-01-11T15:21:35.720Z,28.30
2023-01-11T15:24:06.814Z,21.60
2023-01-11T15:26:50.842Z,26.00
2023-01-11T15:29:27.864Z,21.60
2023-01-11T15:32:18.934Z,24.50
2023-01-11T15:34:50.460Z,24.60
2023-01-11T15:37:32.715Z,24.10
2023-01-11T15:40:11.126Z,24.70
2023-01-11T15:43:28.049Z,26.80
2023-01-11T15:46:43.244Z,25.90
2023-01-11T15:49:40.540Z,24.50
2023-01-11T15:52:41.922Z,28.90
2023-01-11T15:55:39.578Z,30.30
2023-01-11T15:58:28.273Z,26.20
2023-01-11T16:01:13.611Z,25.00
2023-01-11T16:04:01.083Z,26.20
2023-01-11T16:06:43.015Z,28.80
2023-01-11T16:09:45.698Z,30.80
2023-01-11T16:12:42.410Z,25.10
2023-01-11T16:15:25.989Z,36.00
2023-01-11T16:17:59.009Z,26.60
2023-01-11T16:20:30.252Z,25.20
2023-01-11T16:23:03.917Z,24.30
2023-01-11T16:25:38.719Z,21.30
2023-01-11T16:28:16.399Z,23.00
2023-01-11T16:30:47.894Z,19.10
2023-01-11T16:33:22.282Z,23.00
2023-01-11T16:36:06.008Z,21.20
2023-01-11T16:38:46.981Z,24.30
2023-01-11T16:41:18.737Z,22.90
2023-01-11T16:43:55.288Z,32.60
2023-01-11T16:47:07.431Z,22.10
2023-01-11T16:49:38.219Z,26.10
2023-01-11T16:52:38.962Z,31.80
2023-01-11T16:55:19.842Z,23.00
2023-01-11T16:57:57.502Z,31.50
2023-01-11T17:00:36.120Z,27.30
2023-01-11T17:03:21.661Z,29.20
2023-01-11T17:06:16.845Z,25.00
2023-01-11T17:08:52.235Z,27.60
2023-01-11T17:11:33.126Z,23.20
2023-01-11T17:14:37.451Z,25.20
2023-01-11T17:17:10.787Z,23.30
2023-01-11T17:19:47.264Z,24.40
2023-01-11T17:22:26.136Z,22.80
2023-01-11T17:24:59.269Z,28.40
2023-01-11T17:27:35.566Z,24.80
2023-01-11T17:30:15.695Z,20.80
2023-01-11T17:32:49.724Z,22.80
2023-01-11T17:35:24.380Z,26.00
2023-01-11T17:37:57.625Z,22.60
2023-01-11T17:40:31.592Z,28.90
2023-01-11T17:43:24.851Z,28.30
2023-01-11T17:45:58.470Z,20.50
2023-01-11T17:48:30.512Z,23.40
2023-01-11T17:51:04.245Z,24.20
2023-01-11T17:53:37.672Z,26.00
2023-01-11T17:56:30.177Z,23.70
2023-01-11T17:59:22.103Z,19.60
2023-01-11T18:01:57.618Z,18.80
2023-01-11T18:04:29.883Z,24.30
2023-01-11T18:07:16.554Z,25.70
2023-01-11T18:09:50.158Z,21.90
2023-01-11T18:12:26.796Z,21.60
2023-01-11T18:15:01.199Z,26.80
2023-01-11T18:17:42.132Z,19.50
2023-01-11T18:20:37.397Z,19.80
2023-01-11T18:23:24.900Z,24.40
2023-01-11T18:26:26.007Z,18.80
2023-01-11T18:28:57.098Z,21.60
2023-01-11T18:31:28.288Z,17.50
2023-01-11T18:33:59.618Z,20.70
2023-01-11T18:36:30.599Z,22.00
2023-01-11T18:39:01.988Z,21.40
2023-01-11T18:41:50.351Z,23.70
2023-01-11T18:44:21.176Z,20.30
2023-01-11T18:46:52.028Z,25.90
2023-01-11T18:49:24.049Z,27.50
2023-01-11T18:51:57.829Z,22.80
2023-01-11T18:54:28.936Z,27.20
2023-01-11T18:57:00.010Z,21.20
2023-01-11T18:59:30.853Z,24.90
2023-01-11T19:02:17.028Z,22.80
2023-01-11T19:04:49.116Z,26.30
2023-01-11T19:07:20.114Z,24.70
2023-01-11T19:09:51.497Z,30.10
2023-01-11T19:12:22.904Z,28.10
2023-01-11T19:14:54.053Z,34.60
2023-01-11T19:17:36.237Z,22.10
2023-01-11T19:20:11.090Z,29.70
2023-01-11T19:22:42.958Z,26.00
2023-01-11T19:25:14.240Z,28.10
2023-01-11T19:27:45.280Z,22.90
2023-01-11T19:30:17.503Z,22.20
2023-01-11T19:32:53.680Z,24.20
2023-01-11T19:35:24.782Z,20.80
2023-01-11T19:37:55.757Z,21.10
2023-01-11T19:40:26.777Z,21.80
2023-01-11T19:42:59.452Z,19.40
2023-01-11T19:45:30.368Z,21.60
2023-01-11T19:48:02.323Z,22.00
2023-01-11T19:50:33.513Z,25.10
2023-01-11T19:53:04.384Z,18.60
2023-01-11T19:55:35.159Z,24.70
2023-01-11T19:58:08.368Z,16.30
2023-01-11T20:00:39.326Z,22.40
2023-01-11T20:03:10.186Z,19.10
2023-01-11T20:05:41.050Z,18.90
2023-01-11T20:08:11.883Z,20.60
2023-01-11T20:10:42.930Z,25.90
2023-01-11T20:13:13.834Z,24.00
2023-01-11T20:15:44.801Z,28.40
2023-01-11T20:18:15.854Z,27.00
2023-01-11T20:20:55.037Z,30.50
2023-01-11T20:23:26.586Z,28.00
2023-01-11T20:26:02.841Z,23.10
2023-01-11T20:28:34.044Z,30.80
2023-01-11T20:31:08.987Z,32.00
2023-01-11T20:33:39.937Z,36.70
2023-01-11T20:36:16.271Z,38.90
2023-01-11T20:38:47.885Z,35.60
2023-01-11T20:41:35.189Z,27.80
2023-01-11T20:44:07.095Z,31.60
2023-01-11T20:46:38.818Z,29.60
2023-01-11T20:49:09.870Z,35.50
2023-01-11T20:51:40.833Z,28.10
2023-01-11T20:54:12.275Z,38.70
2023-01-11T20:56:46.428Z,30.10
2023-01-11T20:59:20.177Z,31.90
2023-01-11T21:01:51.885Z,40.00
2023-01-11T21:04:23.035Z,43.30
2023-01-11T21:06:53.950Z,33.30
2023-01-11T21:09:25.071Z,31.00
2023-01-11T21:11:55.798Z,43.60
2023-01-11T21:14:26.777Z,37.30
2023-01-11T21:16:58.016Z,39.40
2023-01-11T21:19:29.075Z,48.50
2023-01-11T21:22:00.116Z,40.30
2023-01-11T21:24:31.079Z,39.70
2023-01-11T21:27:02.221Z,37.20
2023-01-11T21:29:33.345Z,36.00
2023-01-11T21:32:04.529Z,33.80
2023-01-11T21:34:35.535Z,44.20
2023-01-11T21:37:06.918Z,43.00
2023-01-11T21:39:37.750Z,38.70
2023-01-11T21:42:08.805Z,30.80
2023-01-11T21:44:39.823Z,41.40
2023-01-11T21:47:14.563Z,39.50
2023-01-11T21:49:45.468Z,44.00
2023-01-11T21:52:16.179Z,42.30
2023-01-11T21:54:47.827Z,40.20
2023-01-11T21:57:18.627Z,39.20
2023-01-11T21:59:49.566Z,39.40
2023-01-11T22:02:20.364Z,45.40
2023-01-11T22:04:56.415Z,41.90
2023-01-11T22:07:28.478Z,37.20
2023-01-11T22:10:04.922Z,44.40
2023-01-11T22:12:37.106Z,38.10
2023-01-11T22:15:09.677Z,42.50
2023-01-11T22:17:40.673Z,43.60
2023-01-11T22:20:15.174Z,39.80
2023-01-11T22:22:46.082Z,38.10
2023-01-11T22:25:17.345Z,41.80
2023-01-11T22:27:48.397Z,38.90
2023-01-11T22:30:19.943Z,39.90
2023-01-11T22:32:50.608Z,44.80
2023-01-11T22:35:21.401Z,37.80
2023-01-11T22:37:52.530Z,43.30
2023-01-11T22:40:23.507Z,47.60
2023-01-11T22:42:54.274Z,44.60
2023-01-11T22:45:25.130Z,44.50
2023-01-11T22:47:55.933Z,33.60
2023-01-11T22:50:26.805Z,33.50
2023-01-11T22:52:57.536Z,40.80
2023-01-11T22:55:28.450Z,36.50
2023-01-11T22:57:59.294Z,44.70
2023-01-11T23:00:30.274Z,39.60
2023-01-11T23:03:00.989Z,39.60
2023-01-11T23:05:32.125Z,39.20
2023-01-11T23:08:03.067Z,41.00
2023-01-11T23:10:33.845Z,42.10
2023-01-11T23:13:22.218Z,37.20
2023-01-11T23:15:55.574Z,37.80
2023-01-11T23:18:26.324Z,37.10
2023-01-11T23:20:56.975Z,40.00
2023-01-11T23:23:30.584Z,41.00
2023-01-11T23:26:01.218Z,31.90
2023-01-11T23:28:32.984Z,43.10
2023-01-11T23:31:16.215Z,36.90
2023-01-11T23:33:48.082Z,40.80
2023-01-11T23:36:20.693Z,43.70
2023-01-11T23:38:52.079Z,35.60
2023-01-11T23:41:41.135Z,42.20
2023-01-11T23:44:15.233Z,41.80
2023-01-11T23:47:05.009Z,39.90
2023-01-11T23:49:35.770Z,41.90
2023-01-11T23:52:07.770Z,38.60
2023-01-11T23:54:38.604Z,38.50
2023-01-11T23:57:09.436Z,36.10
2023-01-11T23:59:40.449Z,36.80
